createdAt,value
2019-03-05T00:01:29.782Z,151356.47
2019-03-05T00:03:58.229Z,151359.06
2019-03-05T00:06:26.988Z,151360.38
2019-03-05T00:08:55.444Z,151361.67
2019-03-05T00:11:24.008Z,151366.94
2019-03-05T00:13:52.474Z,151370.84
2019-03-05T00:16:22.415Z,151366.94
2019-03-05T00:18:50.882Z,151377.41
2019-03-05T00:21:19.443Z,151381.31
2019-03-05T00:23:52.401Z,151385.27
2019-03-05T00:26:23.936Z,151395.73
2019-03-05T00:29:07.285Z,151403.59
2019-03-05T00:31:38.819Z,151408.81
2019-03-05T00:34:13.079Z,151417.97
2019-03-05T00:36:50.993Z,151424.53
2019-03-05T00:39:34.614Z,151424.53
2019-03-05T00:42:25.740Z,151435.00
2019-03-05T00:45:16.701Z,151442.81
2019-03-05T00:48:02.993Z,151445.47
2019-03-05T00:50:46.423Z,151451.98
2019-03-05T00:53:20.663Z,151451.98
2019-03-05T00:56:13.377Z,151453.28
2019-03-05T00:58:44.906Z,151463.77
2019-03-05T01:01:19.020Z,151463.77
2019-03-05T01:04:13.165Z,151466.42
2019-03-05T01:06:41.647Z,151470.33
2019-03-05T01:09:14.668Z,151484.70
2019-03-05T01:11:43.225Z,151469.03
2019-03-05T01:14:12.141Z,151479.50
2019-03-05T01:16:41.306Z,151476.89
2019-03-05T01:19:09.819Z,151479.50
2019-03-05T01:21:38.391Z,151486.06
2019-03-05T01:24:06.986Z,151484.70
2019-03-05T01:26:35.539Z,151483.41
2019-03-05T01:29:04.058Z,151476.89
2019-03-05T01:31:36.941Z,151465.06
2019-03-05T01:34:07.104Z,151459.86
2019-03-05T01:36:40.217Z,151453.28
2019-03-05T01:39:17.417Z,151445.47
2019-03-05T01:41:45.886Z,151435.00
2019-03-05T01:44:14.342Z,151421.88
2019-03-05T01:46:42.819Z,151407.50
2019-03-05T01:49:11.277Z,151414.06
2019-03-05T01:51:39.776Z,151407.50
2019-03-05T01:54:08.246Z,151377.41
2019-03-05T01:56:36.733Z,151385.27
2019-03-05T01:59:05.214Z,151382.61
2019-03-05T02:01:33.976Z,151374.80
2019-03-05T02:04:03.420Z,151368.23
2019-03-05T02:06:31.907Z,151370.84
2019-03-05T02:09:00.377Z,151359.06
2019-03-05T02:11:28.852Z,151344.69
2019-03-05T02:13:57.334Z,151348.59
2019-03-05T02:16:25.816Z,151340.73
2019-03-05T02:18:57.329Z,151344.69
2019-03-05T02:21:25.893Z,151344.69
2019-03-05T02:24:00.114Z,151330.27
2019-03-05T02:26:37.843Z,151314.59
2019-03-05T02:29:12.028Z,151301.53
2019-03-05T02:31:58.365Z,151302.83
2019-03-05T02:34:35.516Z,151293.66
2019-03-05T02:37:21.814Z,151300.17
2019-03-05T02:39:59.130Z,151291.06
2019-03-05T02:42:36.541Z,151275.34
2019-03-05T02:45:39.944Z,151271.42
2019-03-05T02:48:14.726Z,151272.73
2019-03-05T02:51:00.683Z,151259.66
2019-03-05T02:53:44.357Z,151245.25
2019-03-05T02:56:27.710Z,151243.94
2019-03-05T02:58:55.039Z,151230.88
2019-03-05T03:01:41.442Z,151234.78
2019-03-05T03:04:11.604Z,151233.47
2019-03-05T03:06:40.106Z,151225.62
2019-03-05T03:09:26.752Z,151230.88
2019-03-05T03:11:55.232Z,151230.88
2019-03-05T03:14:23.690Z,151249.20
2019-03-05T03:16:52.253Z,151242.64
2019-03-05T03:19:20.711Z,151254.41
2019-03-05T03:21:49.205Z,151263.56
2019-03-05T03:24:17.690Z,151254.41
2019-03-05T03:26:46.168Z,151274.03
2019-03-05T03:29:14.635Z,151277.94
2019-03-05T03:31:43.145Z,151291.06
2019-03-05T03:34:11.599Z,151296.27
2019-03-05T03:36:40.072Z,151305.44
2019-03-05T03:39:08.718Z,151311.98
2019-03-05T03:41:37.242Z,151318.50
2019-03-05T03:44:05.737Z,151327.66
2019-03-05T03:46:34.201Z,151335.53
2019-03-05T03:49:02.694Z,151338.12
2019-03-05T03:51:31.160Z,151348.59
2019-03-05T03:53:59.655Z,151359.06
2019-03-05T03:56:28.183Z,151366.94
2019-03-05T03:58:56.670Z,151370.84
2019-03-05T04:01:25.194Z,151381.31
2019-03-05T04:03:53.690Z,151380.00
2019-03-05T04:06:22.155Z,151387.86
2019-03-05T04:08:50.667Z,151393.08
2019-03-05T04:11:19.169Z,151395.73
2019-03-05T04:13:47.682Z,151398.34
2019-03-05T04:16:16.169Z,151402.25
2019-03-05T04:18:44.632Z,151402.25
2019-03-05T04:21:13.128Z,151410.11
2019-03-05T04:23:41.612Z,151416.67
2019-03-05T04:26:10.058Z,151411.41
2019-03-05T04:28:38.539Z,151406.20
2019-03-05T04:31:07.011Z,151416.67
2019-03-05T04:33:35.584Z,151421.88
2019-03-05T04:36:04.050Z,151424.53
2019-03-05T04:38:32.529Z,151398.34
2019-03-05T04:41:00.979Z,151416.67
2019-03-05T04:43:29.466Z,151416.67
2019-03-05T04:46:05.300Z,151416.67
2019-03-05T04:48:33.835Z,151427.14
2019-03-05T04:51:10.216Z,151424.53
2019-03-05T04:53:38.708Z,151406.20
2019-03-05T04:56:07.153Z,151421.88
2019-03-05T04:58:35.642Z,151415.36
2019-03-05T05:01:04.166Z,151412.72
2019-03-05T05:03:35.664Z,151408.81
2019-03-05T05:06:04.124Z,151411.41
2019-03-05T05:08:32.607Z,151414.06
2019-03-05T05:11:01.059Z,151406.20
2019-03-05T05:13:29.693Z,151398.34
2019-03-05T05:15:58.134Z,151398.34
2019-03-05T05:18:28.441Z,151406.20
2019-03-05T05:20:56.891Z,151408.81
2019-03-05T05:23:25.374Z,151397.03
2019-03-05T05:25:53.871Z,151406.20
2019-03-05T05:28:23.612Z,151398.34
2019-03-05T05:30:52.085Z,151400.94
2019-03-05T05:33:20.569Z,151395.73
2019-03-05T05:35:49.059Z,151391.78
2019-03-05T05:38:17.518Z,151390.47
2019-03-05T05:40:47.739Z,151387.86
2019-03-05T05:43:22.132Z,151377.41
2019-03-05T05:45:52.448Z,151402.25
2019-03-05T05:48:21.014Z,151398.34
2019-03-05T05:50:49.464Z,151385.27
2019-03-05T05:53:17.948Z,151389.17
2019-03-05T05:55:46.388Z,151385.27
2019-03-05T05:58:14.868Z,151374.80
2019-03-05T06:00:47.954Z,151380.00
2019-03-05T06:03:16.452Z,151391.78
2019-03-05T06:05:45.068Z,151369.53
2019-03-05T06:08:13.540Z,151385.27
2019-03-05T06:10:42.025Z,151381.31
2019-03-05T06:13:10.490Z,151380.00
2019-03-05T06:15:39.295Z,151387.86
2019-03-05T06:18:07.757Z,151385.27
2019-03-05T06:20:36.270Z,151390.47
2019-03-05T06:23:04.796Z,151380.00
2019-03-05T06:25:33.358Z,151387.86
2019-03-05T06:28:01.812Z,151387.86
2019-03-05T06:30:38.827Z,151380.00
2019-03-05T06:33:08.426Z,151386.56
2019-03-05T06:35:36.985Z,151390.47
2019-03-05T06:38:05.462Z,151382.61
2019-03-05T06:40:34.010Z,151400.94
2019-03-05T06:43:02.595Z,151403.59
2019-03-05T06:45:31.067Z,151399.64
2019-03-05T06:47:59.547Z,151383.97
2019-03-05T06:50:29.066Z,151394.44
2019-03-05T06:52:57.542Z,151406.20
2019-03-05T06:55:26.023Z,151408.81
2019-03-05T06:57:54.496Z,151420.58
2019-03-05T07:00:38.598Z,151440.22
2019-03-05T07:03:08.809Z,151448.08
2019-03-05T07:06:13.783Z,151437.61
2019-03-05T07:08:51.118Z,151453.28
2019-03-05T07:11:40.447Z,151463.77
2019-03-05T07:14:23.838Z,151462.45
2019-03-05T07:17:04.358Z,151483.41
2019-03-05T07:19:35.898Z,151489.97
2019-03-05T07:22:19.595Z,151510.91
2019-03-05T07:24:48.733Z,151521.37
2019-03-05T07:27:20.038Z,151548.91
2019-03-05T07:29:48.535Z,151563.28
2019-03-05T07:32:18.024Z,151575.06
2019-03-05T07:34:48.184Z,151589.50
2019-03-05T07:37:16.726Z,151614.36
2019-03-05T07:39:45.282Z,151639.22
2019-03-05T07:42:13.808Z,151681.14
2019-03-05T07:44:42.310Z,151703.45
2019-03-05T07:47:10.765Z,151683.80
2019-03-05T07:49:43.655Z,151733.59
2019-03-05T07:52:09.811Z,151769.00
2019-03-05T07:54:38.332Z,151797.84
2019-03-05T07:57:06.823Z,151842.38
2019-03-05T07:59:35.300Z,151848.95
2019-03-05T08:02:04.076Z,151893.50
2019-03-05T08:04:32.547Z,151904.00
2019-03-05T08:07:01.037Z,151939.38
2019-03-05T08:09:37.716Z,151924.97
2019-03-05T08:12:18.467Z,151896.12
2019-03-05T08:15:11.011Z,151898.72
2019-03-05T08:17:39.503Z,151915.78
2019-03-05T08:20:10.949Z,151865.97
2019-03-05T08:22:39.433Z,151868.63
2019-03-05T08:25:10.836Z,151873.84
2019-03-05T08:27:39.348Z,151890.91
2019-03-05T08:30:14.850Z,151890.91
2019-03-05T08:32:43.609Z,151830.59
2019-03-05T08:35:12.207Z,151834.50
2019-03-05T08:37:40.699Z,151841.08
2019-03-05T08:40:14.478Z,151827.98
2019-03-05T08:42:42.960Z,151839.78
2019-03-05T08:45:14.325Z,151862.05
2019-03-05T08:47:42.858Z,151938.06
2019-03-05T08:50:13.738Z,152014.16
2019-03-05T08:52:42.213Z,152100.70
2019-03-05T08:55:13.794Z,152087.59
2019-03-05T08:57:42.278Z,152130.88
2019-03-05T09:00:16.736Z,152126.95
2019-03-05T09:02:49.024Z,152091.52
2019-03-05T09:05:17.518Z,152136.09
2019-03-05T09:07:46.339Z,152157.14
2019-03-05T09:10:17.254Z,152124.30
2019-03-05T09:12:45.763Z,152187.33
2019-03-05T09:15:17.122Z,152210.97
2019-03-05T09:17:45.874Z,152166.28
2019-03-05T09:20:16.776Z,152157.14
2019-03-05T09:22:45.330Z,152105.97
2019-03-05T09:25:17.595Z,152130.88
2019-03-05T09:27:46.073Z,152128.27
2019-03-05T09:30:17.255Z,152062.64
2019-03-05T09:32:45.736Z,152098.09
2019-03-05T09:35:16.031Z,152029.86
2019-03-05T09:37:45.267Z,152050.84
2019-03-05T09:40:33.111Z,152079.72
2019-03-05T09:43:01.592Z,152145.28
2019-03-05T09:45:31.287Z,152166.28
2019-03-05T09:47:59.843Z,152164.97
2019-03-05T09:50:28.377Z,152123.00
2019-03-05T09:52:57.006Z,152073.13
2019-03-05T09:55:30.954Z,152099.39
2019-03-05T09:58:08.011Z,152084.98
2019-03-05T10:00:30.785Z,152040.34
2019-03-05T10:02:59.267Z,152045.63
2019-03-05T10:05:27.763Z,151963.00
2019-03-05T10:07:56.227Z,151947.25
2019-03-05T10:10:28.802Z,151972.19
2019-03-05T10:12:59.114Z,151983.98
2019-03-05T10:15:28.699Z,151963.00
2019-03-05T10:17:57.255Z,151994.47
2019-03-05T10:20:30.334Z,152023.34
2019-03-05T10:22:59.053Z,152058.72
2019-03-05T10:25:28.553Z,152108.58
2019-03-05T10:27:57.828Z,152035.12
2019-03-05T10:30:29.350Z,152107.28
2019-03-05T10:33:00.733Z,152276.58
2019-03-05T10:35:29.354Z,152445.94
2019-03-05T10:38:00.489Z,152515.56
2019-03-05T10:40:53.497Z,152576.00
2019-03-05T10:43:21.995Z,152660.14
2019-03-05T10:45:50.822Z,152749.53
2019-03-05T10:48:21.111Z,152720.61
2019-03-05T10:50:49.741Z,152907.31
2019-03-05T10:53:18.629Z,152852.09
2019-03-05T10:55:47.266Z,152817.88
2019-03-05T10:58:18.448Z,152746.92
2019-03-05T11:00:49.224Z,152715.31
2019-03-05T11:03:19.857Z,152804.73
2019-03-05T11:05:49.016Z,152806.05
2019-03-05T11:08:23.232Z,152820.53
2019-03-05T11:10:53.171Z,152750.84
2019-03-05T11:13:21.825Z,152717.98
2019-03-05T11:15:53.347Z,152675.94
2019-03-05T11:18:29.312Z,152616.78
2019-03-05T11:20:52.286Z,152543.16
2019-03-05T11:23:20.776Z,152481.42
2019-03-05T11:25:49.323Z,152414.42
2019-03-05T11:28:17.818Z,152452.52
2019-03-05T11:30:46.351Z,152452.52
2019-03-05T11:33:15.215Z,152480.13
2019-03-05T11:35:43.757Z,152401.30
2019-03-05T11:38:12.246Z,152397.38
2019-03-05T11:40:40.783Z,152333.06
2019-03-05T11:43:11.333Z,152344.86
2019-03-05T11:45:41.723Z,152340.89
2019-03-05T11:48:10.365Z,152352.70
2019-03-05T11:50:38.826Z,152336.97
2019-03-05T11:53:07.309Z,152292.36
2019-03-05T11:55:35.776Z,152207.00
2019-03-05T11:58:04.273Z,152237.19
2019-03-05T12:00:45.043Z,152189.98
2019-03-05T12:03:13.524Z,152191.28
2019-03-05T12:05:42.159Z,152175.47
2019-03-05T12:08:10.664Z,152176.78
2019-03-05T12:10:39.122Z,152150.56
2019-03-05T12:13:07.961Z,152095.47
2019-03-05T12:15:44.398Z,152119.08
2019-03-05T12:18:13.043Z,152096.78
2019-03-05T12:20:41.678Z,152037.75
2019-03-05T12:23:11.692Z,152054.81
2019-03-05T12:25:41.203Z,152020.67
2019-03-05T12:28:11.030Z,152040.34
2019-03-05T12:30:40.039Z,152029.86
2019-03-05T12:33:08.522Z,152046.94
2019-03-05T12:35:37.096Z,152057.42
2019-03-05T12:38:06.013Z,152035.12
2019-03-05T12:40:34.678Z,152023.34
2019-03-05T12:43:03.151Z,152016.77
2019-03-05T12:45:31.697Z,152011.48
2019-03-05T12:48:00.169Z,152016.77
2019-03-05T12:50:36.007Z,152040.34
2019-03-05T12:53:05.050Z,152040.34
2019-03-05T12:55:33.527Z,152063.94
2019-03-05T12:58:01.988Z,152057.42
2019-03-05T13:00:35.204Z,152078.41
2019-03-05T13:03:04.298Z,152126.95
2019-03-05T13:05:32.769Z,152112.50
2019-03-05T13:08:01.233Z,152149.25
2019-03-05T13:10:36.251Z,152168.94
2019-03-05T13:13:04.245Z,152172.86
2019-03-05T13:15:34.510Z,152136.09
2019-03-05T13:18:03.148Z,152112.50
2019-03-05T13:20:31.809Z,152112.50
2019-03-05T13:23:00.344Z,152107.28
2019-03-05T13:25:29.987Z,152119.08
2019-03-05T13:28:02.080Z,152112.50
2019-03-05T13:30:32.031Z,152105.97
2019-03-05T13:33:00.948Z,152116.47
2019-03-05T13:35:30.641Z,152138.75
2019-03-05T13:38:10.813Z,152105.97
2019-03-05T13:40:40.725Z,152111.19
2019-03-05T13:43:09.777Z,152129.56
2019-03-05T13:45:43.945Z,152140.06
2019-03-05T13:48:18.831Z,152154.48
2019-03-05T13:50:59.708Z,152137.45
2019-03-05T13:53:37.203Z,152132.19
2019-03-05T13:56:44.015Z,152084.98
2019-03-05T13:59:44.379Z,152031.17
2019-03-05T14:02:15.217Z,152035.12
2019-03-05T14:05:01.182Z,152001.00
2019-03-05T14:08:01.371Z,152001.00
2019-03-05T14:10:29.878Z,151932.84
2019-03-05T14:12:58.331Z,151927.58
2019-03-05T14:15:26.862Z,151928.87
2019-03-05T14:17:55.348Z,151924.97
2019-03-05T14:20:31.577Z,151890.91
2019-03-05T14:22:54.017Z,151877.75
2019-03-05T14:25:22.490Z,151892.20
2019-03-05T14:27:51.021Z,151868.63
2019-03-05T14:30:21.498Z,151886.94
2019-03-05T14:32:50.077Z,151881.72
2019-03-05T14:35:19.636Z,151875.14
2019-03-05T14:37:48.546Z,151864.66
2019-03-05T14:40:25.377Z,151869.92
2019-03-05T14:42:53.860Z,151863.34
2019-03-05T14:45:30.458Z,151877.75
2019-03-05T14:48:00.020Z,151869.92
2019-03-05T14:50:28.750Z,151885.62
2019-03-05T14:52:57.244Z,151898.72
2019-03-05T14:55:25.722Z,151913.17
2019-03-05T14:57:54.186Z,151909.27
2019-03-05T15:00:23.830Z,151911.88
2019-03-05T15:02:52.497Z,151913.17
2019-03-05T15:05:21.230Z,151917.09
2019-03-05T15:07:49.689Z,151896.12
2019-03-05T15:10:18.162Z,151907.91
2019-03-05T15:12:46.682Z,151904.00
2019-03-05T15:15:18.577Z,151881.72
2019-03-05T15:17:47.352Z,151877.75
2019-03-05T15:20:15.923Z,151856.78
2019-03-05T15:22:44.367Z,151859.44
2019-03-05T15:25:14.955Z,151833.20
2019-03-05T15:27:43.629Z,151842.38
2019-03-05T15:30:15.120Z,151837.16
2019-03-05T15:32:43.607Z,151769.00
2019-03-05T15:35:12.764Z,151748.03
2019-03-05T15:37:41.289Z,151698.19
2019-03-05T15:40:14.482Z,151683.80
2019-03-05T15:42:42.925Z,151699.50
2019-03-05T15:45:22.451Z,151681.14
2019-03-05T15:47:50.972Z,151696.88
2019-03-05T15:50:22.597Z,151647.09
2019-03-05T15:52:51.135Z,151634.00
2019-03-05T15:55:19.626Z,151610.45
2019-03-05T15:57:48.283Z,151590.80
2019-03-05T16:00:29.637Z,151584.23
2019-03-05T16:02:58.569Z,151593.41
2019-03-05T16:05:27.866Z,151589.50
2019-03-05T16:07:56.490Z,151544.94
2019-03-05T16:10:24.944Z,151529.25
2019-03-05T16:12:53.577Z,151513.52
2019-03-05T16:15:22.035Z,151531.86
2019-03-05T16:17:50.514Z,151526.59
2019-03-05T16:20:20.009Z,151513.52
2019-03-05T16:22:51.058Z,151505.66
2019-03-05T16:25:22.174Z,151499.14
2019-03-05T16:27:50.828Z,151459.86
2019-03-05T16:30:39.983Z,151347.30
2019-03-05T16:33:10.237Z,151313.28
2019-03-05T16:35:40.346Z,151309.33
2019-03-05T16:38:28.302Z,151277.94
2019-03-05T16:41:17.032Z,151296.27
2019-03-05T16:43:49.869Z,151292.36
2019-03-05T16:46:19.976Z,151288.41
2019-03-05T16:48:58.908Z,151291.06
2019-03-05T16:51:29.005Z,151268.78
2019-03-05T16:54:11.151Z,151276.64
2019-03-05T16:56:59.646Z,151241.34
2019-03-05T16:59:46.166Z,151238.73
2019-03-05T17:02:19.815Z,151238.73
2019-03-05T17:05:06.141Z,151283.19
2019-03-05T17:07:41.903Z,151283.19
2019-03-05T17:10:13.354Z,151284.50
2019-03-05T17:12:41.989Z,151242.64
2019-03-05T17:15:10.919Z,151277.94
2019-03-05T17:17:39.462Z,151260.97
2019-03-05T17:20:10.952Z,151259.66
2019-03-05T17:22:39.429Z,151266.17
2019-03-05T17:25:19.341Z,151251.80
2019-03-05T17:27:47.823Z,151267.47
2019-03-05T17:30:17.623Z,151217.77
2019-03-05T17:32:46.735Z,151191.63
2019-03-05T17:35:16.242Z,151216.45
2019-03-05T17:37:45.016Z,151209.95
2019-03-05T17:40:15.044Z,151213.86
2019-03-05T17:42:43.532Z,151208.66
2019-03-05T17:45:18.292Z,151169.41
2019-03-05T17:47:46.774Z,151181.16
2019-03-05T17:50:15.468Z,151165.45
2019-03-05T17:52:44.012Z,151148.48
2019-03-05T17:55:24.221Z,151134.06
2019-03-05T17:57:47.954Z,151140.62
2019-03-05T18:00:26.667Z,151123.61
2019-03-05T18:02:55.142Z,151126.27
2019-03-05T18:05:23.606Z,151105.34
2019-03-05T18:07:52.255Z,151097.48
2019-03-05T18:10:20.997Z,151094.87
2019-03-05T18:12:49.747Z,151084.42
2019-03-05T18:15:18.678Z,151084.42
2019-03-05T18:17:47.140Z,151100.09
2019-03-05T18:20:23.726Z,151092.23
2019-03-05T18:22:52.207Z,151094.87
2019-03-05T18:25:20.804Z,151072.56
2019-03-05T18:27:49.310Z,151080.47
2019-03-05T18:30:25.748Z,151067.36
2019-03-05T18:32:54.589Z,151051.66
2019-03-05T18:35:23.048Z,151051.66
2019-03-05T18:37:51.768Z,151039.89
2019-03-05T18:40:24.143Z,151029.44
2019-03-05T18:42:52.869Z,151055.59
2019-03-05T18:45:24.686Z,151047.75
2019-03-05T18:47:53.158Z,151060.81
2019-03-05T18:50:22.577Z,151068.66
2019-03-05T18:52:53.339Z,151081.78
2019-03-05T18:55:25.117Z,151066.06
2019-03-05T18:57:53.722Z,151055.59
2019-03-05T19:00:26.332Z,151075.22
2019-03-05T19:02:56.932Z,151066.06
2019-03-05T19:05:25.410Z,151069.97
2019-03-05T19:07:54.047Z,151068.66
2019-03-05T19:10:26.317Z,151050.34
2019-03-05T19:12:54.848Z,151067.36
2019-03-05T19:15:27.839Z,151058.20
2019-03-05T19:17:56.599Z,151021.59
2019-03-05T19:20:27.182Z,151022.94
2019-03-05T19:22:55.711Z,151016.37
2019-03-05T19:25:36.136Z,151007.22
2019-03-05T19:28:05.224Z,151013.78
2019-03-05T19:30:41.630Z,151029.44
2019-03-05T19:33:10.164Z,151009.83
2019-03-05T19:35:38.729Z,150995.47
2019-03-05T19:38:07.208Z,150990.22
2019-03-05T19:40:37.778Z,150988.92
2019-03-05T19:43:07.183Z,150979.77
2019-03-05T19:45:35.658Z,150987.62
2019-03-05T19:48:04.484Z,150974.56
2019-03-05T19:50:32.958Z,150983.72
2019-03-05T19:53:01.585Z,150958.86
2019-03-05T19:55:30.904Z,150966.72
2019-03-05T19:58:08.765Z,150953.66
2019-03-05T20:01:04.649Z,150932.75
2019-03-05T20:03:33.159Z,150935.34
2019-03-05T20:06:01.880Z,150926.20
2019-03-05T20:08:39.432Z,150931.45
2019-03-05T20:11:00.562Z,150915.75
2019-03-05T20:13:29.023Z,150924.89
2019-03-05T20:15:57.582Z,150921.00
2019-03-05T20:18:26.106Z,150927.50
2019-03-05T20:20:54.769Z,150906.59
2019-03-05T20:23:23.503Z,150888.30
2019-03-05T20:25:52.054Z,150886.98
2019-03-05T20:28:20.519Z,150890.94
2019-03-05T20:30:49.031Z,150886.98
2019-03-05T20:33:17.492Z,150875.25
2019-03-05T20:35:45.978Z,150864.80
2019-03-05T20:38:14.446Z,150886.98
2019-03-05T20:40:42.927Z,150877.84
2019-03-05T20:43:11.459Z,150868.75
2019-03-05T20:45:48.609Z,150849.14
2019-03-05T20:48:17.457Z,150864.80
2019-03-05T20:50:45.960Z,150843.89
2019-03-05T20:53:14.429Z,150838.69
2019-03-05T20:55:42.981Z,150829.55
2019-03-05T20:58:11.515Z,150851.73
2019-03-05T21:00:40.751Z,150829.55
2019-03-05T21:03:11.533Z,150807.34
2019-03-05T21:05:44.772Z,150820.39
2019-03-05T21:08:13.611Z,150849.14
2019-03-05T21:10:42.103Z,150832.14
2019-03-05T21:13:10.911Z,150813.84
2019-03-05T21:15:39.406Z,150792.95
2019-03-05T21:18:10.649Z,150811.25
2019-03-05T21:20:39.342Z,150825.59
2019-03-05T21:23:08.031Z,150843.89
2019-03-05T21:25:36.748Z,150802.09
2019-03-05T21:28:05.207Z,150795.55
2019-03-05T21:30:33.780Z,150800.80
2019-03-05T21:33:02.267Z,150807.34
2019-03-05T21:35:30.733Z,150802.09
2019-03-05T21:37:59.208Z,150781.20
2019-03-05T21:40:31.756Z,150768.16
2019-03-05T21:43:00.215Z,150778.61
2019-03-05T21:45:40.333Z,150802.09
2019-03-05T21:48:08.799Z,150795.55
2019-03-05T21:50:37.294Z,150791.66
2019-03-05T21:53:06.190Z,150789.05
2019-03-05T21:55:34.671Z,150782.50
2019-03-05T21:58:03.251Z,150802.09
2019-03-05T22:00:32.945Z,150778.61
2019-03-05T22:03:02.553Z,150783.80
2019-03-05T22:05:31.423Z,150760.31
2019-03-05T22:07:59.882Z,150770.75
2019-03-05T22:10:28.422Z,150749.86
2019-03-05T22:12:56.891Z,150732.87
2019-03-05T22:15:27.335Z,150761.61
2019-03-05T22:17:55.798Z,150773.34
2019-03-05T22:20:24.469Z,150781.20
2019-03-05T22:22:52.941Z,150765.56
2019-03-05T22:25:22.656Z,150781.20
2019-03-05T22:27:51.265Z,150774.66
2019-03-05T22:30:25.243Z,150770.75
2019-03-05T22:32:53.976Z,150770.75
2019-03-05T22:35:22.830Z,150745.97
2019-03-05T22:37:51.540Z,150735.52
2019-03-05T22:40:22.360Z,150727.67
2019-03-05T22:42:50.825Z,150734.22
2019-03-05T22:45:35.280Z,150727.67
2019-03-05T22:48:03.815Z,150730.28
2019-03-05T22:50:32.291Z,150704.19
2019-03-05T22:53:00.753Z,150715.94
2019-03-05T22:55:29.247Z,150730.28
2019-03-05T22:57:57.981Z,150726.38
2019-03-05T23:01:06.648Z,150705.48
2019-03-05T23:03:35.388Z,150700.23
2019-03-05T23:06:07.194Z,150704.19
2019-03-05T23:08:35.729Z,150710.69
2019-03-05T23:11:04.485Z,150671.50
2019-03-05T23:13:33.099Z,150654.56
2019-03-05T23:16:01.757Z,150658.47
2019-03-05T23:18:30.218Z,150634.98
2019-03-05T23:20:58.682Z,150627.14
2019-03-05T23:23:27.317Z,150658.47
2019-03-05T23:25:55.782Z,150633.69
2019-03-05T23:28:24.469Z,150658.47
2019-03-05T23:30:52.932Z,150658.47
2019-03-05T23:33:21.518Z,150640.19
2019-03-05T23:35:49.977Z,150638.88
2019-03-05T23:38:18.482Z,150641.47
2019-03-05T23:40:47.382Z,150615.41
2019-03-05T23:43:15.954Z,150634.98
2019-03-05T23:45:44.491Z,150632.38
2019-03-05T23:48:12.971Z,150625.84
2019-03-05T23:50:41.506Z,150610.16
2019-03-05T23:53:10.050Z,150594.52
2019-03-05T23:55:38.517Z,150599.72
2019-03-05T23:58:07.003Z,150594.52
